createdAt,value
2023-10-26T00:01:20.940Z,97552.44
2023-10-26T00:03:23.751Z,97555.94
2023-10-26T00:05:26.882Z,97560.00
2023-10-26T00:07:29.937Z,97560.00
2023-10-26T00:09:32.652Z,97560.59
2023-10-26T00:11:35.378Z,97550.13
2023-10-26T00:13:39.589Z,97557.41
2023-10-26T00:15:42.169Z,97562.78
2023-10-26T00:17:45.401Z,97554.50
2023-10-26T00:19:48.160Z,97556.91
2023-10-26T00:21:52.997Z,97557.72
2023-10-26T00:23:55.585Z,97552.09
2023-10-26T00:25:58.742Z,97549.41
2023-10-26T00:28:01.436Z,97547.03
2023-10-26T00:30:07.419Z,97550.56
2023-10-26T00:32:10.405Z,97543.31
2023-10-26T00:34:13.967Z,97537.97
2023-10-26T00:36:16.539Z,97535.00
2023-10-26T00:38:19.267Z,97536.09
2023-10-26T00:40:22.028Z,97535.28
2023-10-26T00:42:29.277Z,97530.72
2023-10-26T00:44:33.080Z,97517.81
2023-10-26T00:46:37.727Z,97521.28
2023-10-26T00:48:41.590Z,97515.66
2023-10-26T00:50:45.635Z,97522.91
2023-10-26T00:52:49.851Z,97517.56
2023-10-26T00:54:54.159Z,97512.44
2023-10-26T00:56:58.608Z,97503.03
2023-10-26T00:59:01.512Z,97502.78
2023-10-26T01:01:04.394Z,97499.03
2023-10-26T01:03:08.588Z,97499.03
2023-10-26T01:05:11.232Z,97496.63
2023-10-26T01:07:13.874Z,97489.88
2023-10-26T01:09:17.326Z,97493.66
2023-10-26T01:11:20.920Z,97490.97
2023-10-26T01:13:23.949Z,97490.69
2023-10-26T01:15:26.752Z,97487.75
2023-10-26T01:17:29.659Z,97485.34
2023-10-26T01:19:41.076Z,97475.69
2023-10-26T01:21:51.848Z,97480.50
2023-10-26T01:23:56.155Z,97475.41
2023-10-26T01:25:59.945Z,97476.22
2023-10-26T01:28:02.850Z,97475.94
2023-10-26T01:30:06.964Z,97467.06
2023-10-26T01:32:10.627Z,97471.09
2023-10-26T01:34:13.246Z,97471.66
2023-10-26T01:36:16.102Z,97465.22
2023-10-26T01:38:20.181Z,97460.34
2023-10-26T01:40:22.977Z,97458.22
2023-10-26T01:42:25.596Z,97449.59
2023-10-26T01:44:28.295Z,97446.69
2023-10-26T01:46:31.187Z,97441.56
2023-10-26T01:48:34.020Z,97435.41
2023-10-26T01:50:37.221Z,97431.63
2023-10-26T01:52:41.279Z,97422.22
2023-10-26T01:54:45.555Z,97417.94
2023-10-26T01:56:48.485Z,97423.84
2023-10-26T01:58:51.277Z,97434.06
2023-10-26T02:00:54.011Z,97437.28
2023-10-26T02:02:57.475Z,97434.31
2023-10-26T02:05:00.549Z,97428.69
2023-10-26T02:07:03.278Z,97416.88
2023-10-26T02:09:06.168Z,97419.81
2023-10-26T02:11:10.210Z,97411.22
2023-10-26T02:13:13.019Z,97413.66
2023-10-26T02:15:15.925Z,97413.91
2023-10-26T02:17:18.859Z,97411.50
2023-10-26T02:19:22.835Z,97405.03
2023-10-26T02:21:25.774Z,97406.69
2023-10-26T02:23:29.425Z,97411.50
2023-10-26T02:25:32.502Z,97417.94
2023-10-26T02:27:37.154Z,97409.88
2023-10-26T02:29:40.397Z,97419.81
2023-10-26T02:31:43.402Z,97434.03
2023-10-26T02:33:46.299Z,97430.28
2023-10-26T02:35:49.142Z,97409.34
2023-10-26T02:37:52.124Z,97412.31
2023-10-26T02:39:56.240Z,97416.88
2023-10-26T02:41:59.399Z,97425.72
2023-10-26T02:44:04.361Z,97432.69
2023-10-26T02:46:07.382Z,97451.75
2023-10-26T02:48:10.295Z,97454.47
2023-10-26T02:50:13.500Z,97458.47
2023-10-26T02:52:16.420Z,97449.88
2023-10-26T02:54:19.426Z,97442.38
2023-10-26T02:56:22.381Z,97434.31
2023-10-26T02:58:26.044Z,97421.41
2023-10-26T03:00:30.677Z,97423.03
2023-10-26T03:02:34.086Z,97422.22
2023-10-26T03:04:39.050Z,97422.22
2023-10-26T03:06:42.749Z,97417.88
2023-10-26T03:08:45.652Z,97408.25
2023-10-26T03:10:48.848Z,97406.06
2023-10-26T03:12:51.839Z,97400.19
2023-10-26T03:14:54.774Z,97382.50
2023-10-26T03:16:59.686Z,97373.06
2023-10-26T03:19:02.625Z,97376.00
2023-10-26T03:21:06.064Z,97359.91
2023-10-26T03:23:09.036Z,97350.50
2023-10-26T03:25:15.437Z,97351.25
2023-10-26T03:27:18.976Z,97377.59
2023-10-26T03:29:22.881Z,97381.09
2023-10-26T03:31:25.896Z,97376.28
2023-10-26T03:33:30.300Z,97373.53
2023-10-26T03:35:36.803Z,97375.66
2023-10-26T03:37:39.760Z,97366.59
2023-10-26T03:39:42.803Z,97369.50
2023-10-26T03:41:45.842Z,97385.06
2023-10-26T03:43:48.928Z,97387.97
2023-10-26T03:45:51.871Z,97371.09
2023-10-26T03:47:55.095Z,97373.16
2023-10-26T03:49:59.512Z,97375.00
2023-10-26T03:52:02.729Z,97378.00
2023-10-26T03:54:05.947Z,97385.16
2023-10-26T03:56:09.670Z,97373.97
2023-10-26T03:58:13.985Z,97369.41
2023-10-26T04:00:18.177Z,97357.03
2023-10-26T04:02:21.144Z,97353.78
2023-10-26T04:04:24.133Z,97341.69
2023-10-26T04:06:28.438Z,97340.06
2023-10-26T04:08:31.370Z,97344.09
2023-10-26T04:10:35.620Z,97349.97
2023-10-26T04:12:38.902Z,97339.88
2023-10-26T04:14:41.831Z,97342.72
2023-10-26T04:16:49.159Z,97346.97
2023-10-26T04:18:52.148Z,97338.63
2023-10-26T04:20:55.133Z,97332.09
2023-10-26T04:22:59.706Z,97332.78
2023-10-26T04:25:02.687Z,97325.03
2023-10-26T04:27:05.776Z,97316.13
2023-10-26T04:29:09.002Z,97304.03
2023-10-26T04:31:11.865Z,97290.91
2023-10-26T04:33:15.208Z,97284.31
2023-10-26T04:35:18.246Z,97282.91
2023-10-26T04:37:21.360Z,97286.13
2023-10-26T04:39:25.872Z,97285.53
2023-10-26T04:41:28.835Z,97276.19
2023-10-26T04:43:31.700Z,97271.56
2023-10-26T04:45:34.964Z,97268.41
2023-10-26T04:47:38.114Z,97268.38
2023-10-26T04:49:41.786Z,97291.16
2023-10-26T04:51:44.683Z,97296.84
2023-10-26T04:53:47.659Z,97295.06
2023-10-26T04:55:52.162Z,97283.88
2023-10-26T04:57:55.235Z,97283.78
2023-10-26T04:59:58.258Z,97288.56
2023-10-26T05:02:01.215Z,97276.78
2023-10-26T05:04:04.251Z,97270.94
2023-10-26T05:06:08.179Z,97278.66
2023-10-26T05:08:11.117Z,97286.59
2023-10-26T05:10:14.600Z,97299.53
2023-10-26T05:12:19.038Z,97301.63
2023-10-26T05:14:22.031Z,97288.84
2023-10-26T05:16:25.180Z,97275.03
2023-10-26T05:18:28.312Z,97287.97
2023-10-26T05:20:32.039Z,97285.94
2023-10-26T05:22:35.191Z,97282.47
2023-10-26T05:24:40.391Z,97287.25
2023-10-26T05:26:43.356Z,97285.03
2023-10-26T05:28:48.640Z,97285.47
2023-10-26T05:30:51.694Z,97284.09
2023-10-26T05:32:54.664Z,97287.81
2023-10-26T05:34:57.653Z,97302.06
2023-10-26T05:37:00.528Z,97296.00
2023-10-26T05:39:04.820Z,97292.38
2023-10-26T05:41:07.771Z,97297.06
2023-10-26T05:43:11.809Z,97294.34
2023-10-26T05:45:16.527Z,97305.06
2023-10-26T05:47:22.018Z,97294.91
2023-10-26T05:49:24.715Z,97295.41
2023-10-26T05:51:27.868Z,97290.53
2023-10-26T05:53:30.800Z,97298.59
2023-10-26T05:55:33.823Z,97294.00
2023-10-26T05:57:36.828Z,97299.69
2023-10-26T05:59:39.861Z,97304.91
2023-10-26T06:01:44.273Z,97303.44
2023-10-26T06:03:47.403Z,97312.09
2023-10-26T06:05:50.372Z,97316.44
2023-10-26T06:07:53.613Z,97316.91
2023-10-26T06:09:56.707Z,97312.63
2023-10-26T06:11:59.766Z,97301.56
2023-10-26T06:14:02.675Z,97295.38
2023-10-26T06:16:06.558Z,97287.19
2023-10-26T06:18:14.416Z,97288.97
2023-10-26T06:20:18.353Z,97284.91
2023-10-26T06:22:21.280Z,97291.75
2023-10-26T06:24:24.341Z,97288.44
2023-10-26T06:26:27.308Z,97292.47
2023-10-26T06:28:30.691Z,97292.72
2023-10-26T06:30:35.595Z,97300.41
2023-10-26T06:32:38.895Z,97303.75
2023-10-26T06:34:43.500Z,97299.53
2023-10-26T06:36:46.869Z,97308.34
2023-10-26T06:38:49.837Z,97311.25
2023-10-26T06:40:52.963Z,97314.69
2023-10-26T06:42:56.007Z,97311.28
2023-10-26T06:44:59.082Z,97310.66
2023-10-26T06:47:02.214Z,97302.03
2023-10-26T06:49:18.353Z,97298.91
2023-10-26T06:51:31.544Z,97294.25
2023-10-26T06:53:34.568Z,97294.75
2023-10-26T06:55:37.473Z,97288.56
2023-10-26T06:57:40.536Z,97301.25
2023-10-26T06:59:43.494Z,97301.19
2023-10-26T07:02:09.594Z,97307.72
2023-10-26T07:04:09.376Z,97303.16
2023-10-26T07:06:12.382Z,97300.25
2023-10-26T07:08:17.140Z,97307.38
2023-10-26T07:10:22.868Z,97301.19
2023-10-26T07:12:26.028Z,97296.38
2023-10-26T07:14:29.093Z,97310.47
2023-10-26T07:16:32.063Z,97308.56
2023-10-26T07:18:35.295Z,97316.81
2023-10-26T07:20:38.636Z,97311.59
2023-10-26T07:22:42.031Z,97313.31
2023-10-26T07:24:46.496Z,97306.97
2023-10-26T07:26:51.202Z,97313.88
2023-10-26T07:28:56.424Z,97315.06
2023-10-26T07:30:59.891Z,97307.69
2023-10-26T07:33:03.038Z,97316.66
2023-10-26T07:35:06.602Z,97317.03
2023-10-26T07:37:09.605Z,97322.34
2023-10-26T07:39:44.485Z,97323.59
2023-10-26T07:42:06.779Z,97330.16
2023-10-26T07:43:59.857Z,97324.13
2023-10-26T07:46:03.312Z,97331.06
2023-10-26T07:48:06.882Z,97326.72
2023-10-26T07:50:10.187Z,97329.91
2023-10-26T07:52:13.137Z,97327.16
2023-10-26T07:54:16.399Z,97319.22
2023-10-26T07:56:20.764Z,97312.66
2023-10-26T07:58:25.601Z,97320.38
2023-10-26T08:00:29.287Z,97315.09
2023-10-26T08:02:35.290Z,97315.78
2023-10-26T08:04:38.940Z,97319.69
2023-10-26T08:06:41.872Z,97315.94
2023-10-26T08:08:44.856Z,97309.34
2023-10-26T08:10:47.867Z,97319.13
2023-10-26T08:12:53.177Z,97328.41
2023-10-26T08:16:10.895Z,97321.03
2023-10-26T08:17:22.376Z,97328.00
2023-10-26T08:19:26.175Z,97323.97
2023-10-26T08:21:29.666Z,97321.91
2023-10-26T08:23:34.469Z,97328.09
2023-10-26T08:25:38.098Z,97329.22
2023-10-26T08:27:41.095Z,97324.56
2023-10-26T08:29:44.605Z,97324.91
2023-10-26T08:31:49.334Z,97322.22
2023-10-26T08:33:52.440Z,97337.03
2023-10-26T08:35:55.375Z,97322.63
2023-10-26T08:37:58.555Z,97334.59
2023-10-26T08:40:01.573Z,97329.88
2023-10-26T08:42:05.562Z,97327.56
2023-10-26T08:44:08.726Z,97324.63
2023-10-26T08:46:13.421Z,97326.59
2023-10-26T08:48:19.467Z,97336.47
2023-10-26T08:50:23.932Z,97338.41
2023-10-26T08:52:28.560Z,97340.91
2023-10-26T08:54:31.707Z,97338.75
2023-10-26T08:56:34.716Z,97334.28
2023-10-26T08:58:38.565Z,97334.28
2023-10-26T09:00:42.490Z,97337.94
2023-10-26T09:02:46.319Z,97349.44
2023-10-26T09:05:04.456Z,97335.88
2023-10-26T09:07:08.237Z,97343.34
2023-10-26T09:09:11.577Z,97345.00
2023-10-26T09:11:22.676Z,97340.28
2023-10-26T09:13:27.273Z,97340.56
2023-10-26T09:15:30.829Z,97340.56
2023-10-26T09:17:34.386Z,97335.47
2023-10-26T09:19:42.486Z,97349.03
2023-10-26T09:21:58.143Z,97337.06
2023-10-26T09:24:01.477Z,97341.09
2023-10-26T09:26:05.939Z,97349.84
2023-10-26T09:28:08.971Z,97355.63
2023-10-26T09:30:27.408Z,97355.38
2023-10-26T09:32:34.508Z,97357.81
2023-10-26T09:34:44.059Z,97365.84
2023-10-26T09:37:02.141Z,97354.28
2023-10-26T09:39:08.624Z,97357.72
2023-10-26T09:41:13.658Z,97352.16
2023-10-26T09:43:16.627Z,97361.63
2023-10-26T09:45:20.630Z,97354.22
2023-10-26T09:47:26.034Z,97356.72
2023-10-26T09:49:29.451Z,97359.38
2023-10-26T09:51:32.527Z,97361.91
2023-10-26T09:53:39.855Z,97348.78
2023-10-26T09:55:44.573Z,97352.22
2023-10-26T09:57:54.547Z,97343.41
2023-10-26T10:00:00.671Z,97349.66
2023-10-26T10:02:15.263Z,97349.97
2023-10-26T10:04:35.234Z,97344.75
2023-10-26T10:06:52.321Z,97347.56
2023-10-26T10:09:03.530Z,97354.91
2023-10-26T10:11:19.306Z,97353.25
2023-10-26T10:13:37.618Z,97351.25
2023-10-26T10:15:43.803Z,97342.44
2023-10-26T10:18:04.458Z,97343.25
2023-10-26T10:20:30.905Z,97346.69
2023-10-26T10:22:55.267Z,97344.53
2023-10-26T10:25:01.189Z,97352.63
2023-10-26T10:27:10.958Z,97335.38
2023-10-26T10:29:20.646Z,97337.75
2023-10-26T10:31:42.177Z,97337.41
2023-10-26T10:33:46.595Z,97343.84
2023-10-26T10:36:04.639Z,97336.22
2023-10-26T10:38:22.936Z,97335.38
2023-10-26T10:40:27.482Z,97337.38
2023-10-26T10:42:32.332Z,97332.19
2023-10-26T10:44:37.817Z,97334.66
2023-10-26T10:46:40.424Z,97329.97
2023-10-26T10:49:04.766Z,97334.50
2023-10-26T10:51:07.790Z,97338.06
2023-10-26T10:53:16.600Z,97336.19
2023-10-26T10:55:21.826Z,97340.56
2023-10-26T10:57:26.691Z,97340.81
2023-10-26T10:59:31.978Z,97335.56
2023-10-26T11:01:34.820Z,97341.47
2023-10-26T11:03:38.362Z,97334.72
2023-10-26T11:05:41.873Z,97328.50
2023-10-26T11:07:44.936Z,97334.78
2023-10-26T11:09:49.620Z,97332.97
2023-10-26T11:11:52.779Z,97329.16
2023-10-26T11:14:10.951Z,97338.66
2023-10-26T11:16:17.949Z,97335.06
2023-10-26T11:18:21.134Z,97330.06
2023-10-26T11:20:38.692Z,97332.84
2023-10-26T11:22:41.596Z,97334.25
2023-10-26T11:24:45.556Z,97333.47
2023-10-26T11:27:09.388Z,97330.72
2023-10-26T11:29:19.775Z,97334.72
2023-10-26T11:31:43.958Z,97334.88
2023-10-26T11:33:47.193Z,97332.50
2023-10-26T11:35:50.104Z,97340.31
2023-10-26T11:37:55.246Z,97342.53
2023-10-26T11:39:58.222Z,97336.78
2023-10-26T11:42:01.259Z,97329.47
2023-10-26T11:44:05.463Z,97331.75
2023-10-26T11:46:09.982Z,97330.53
2023-10-26T11:48:12.997Z,97334.50
2023-10-26T11:50:26.714Z,97333.00
2023-10-26T11:52:29.691Z,97335.47
2023-10-26T11:54:32.825Z,97341.38
2023-10-26T11:56:35.789Z,97336.94
2023-10-26T11:58:39.789Z,97334.72
2023-10-26T12:00:43.699Z,97340.91
2023-10-26T12:02:48.632Z,97341.78
2023-10-26T12:04:51.584Z,97336.25
2023-10-26T12:06:54.545Z,97327.91
2023-10-26T12:08:57.498Z,97332.94
2023-10-26T12:11:00.537Z,97335.28
2023-10-26T12:13:03.702Z,97327.41
2023-10-26T12:15:07.989Z,97330.34
2023-10-26T12:17:11.165Z,97330.66
2023-10-26T12:19:15.638Z,97333.22
2023-10-26T12:21:19.009Z,97332.75
2023-10-26T12:23:22.052Z,97333.19
2023-10-26T12:25:25.300Z,97338.84
2023-10-26T12:27:28.480Z,97341.56
2023-10-26T12:29:32.708Z,97343.03
2023-10-26T12:31:35.878Z,97337.72
2023-10-26T12:33:41.306Z,97346.22
2023-10-26T12:35:48.332Z,97351.41
2023-10-26T12:37:51.328Z,97353.59
2023-10-26T12:39:54.423Z,97349.47
2023-10-26T12:41:57.226Z,97353.03
2023-10-26T12:44:00.279Z,97347.13
2023-10-26T12:46:03.309Z,97350.94
2023-10-26T12:48:06.666Z,97356.81
2023-10-26T12:50:09.816Z,97364.59
2023-10-26T12:52:14.336Z,97357.06
2023-10-26T12:54:17.427Z,97365.78
2023-10-26T12:56:21.699Z,97355.50
2023-10-26T12:58:24.677Z,97362.78
2023-10-26T13:00:28.474Z,97361.59
2023-10-26T13:02:31.502Z,97360.38
2023-10-26T13:04:35.350Z,97364.81
2023-10-26T13:06:38.593Z,97365.16
2023-10-26T13:08:43.129Z,97365.03
2023-10-26T13:10:46.119Z,97365.78
2023-10-26T13:12:49.353Z,97370.72
2023-10-26T13:14:56.935Z,97372.31
2023-10-26T13:17:07.373Z,97378.72
2023-10-26T13:19:10.326Z,97375.53
2023-10-26T13:21:13.427Z,97376.63
2023-10-26T13:23:16.358Z,97375.69
2023-10-26T13:25:20.796Z,97382.38
2023-10-26T13:27:23.960Z,97386.09
2023-10-26T13:29:27.087Z,97373.88
2023-10-26T13:31:30.188Z,97378.81
2023-10-26T13:33:34.291Z,97375.59
2023-10-26T13:35:37.285Z,97371.50
2023-10-26T13:37:40.502Z,97365.81
2023-10-26T13:39:43.767Z,97362.19
2023-10-26T13:41:48.406Z,97361.88
2023-10-26T13:43:52.749Z,97362.97
2023-10-26T13:45:55.690Z,97361.41
2023-10-26T13:48:01.118Z,97360.59
2023-10-26T13:50:03.889Z,97352.47
2023-10-26T13:52:07.233Z,97352.34
2023-10-26T13:54:10.229Z,97356.47
2023-10-26T13:56:13.178Z,97357.66
2023-10-26T13:58:17.966Z,97357.28
2023-10-26T14:00:20.917Z,97356.78
2023-10-26T14:02:25.495Z,97369.09
2023-10-26T14:04:28.468Z,97360.56
2023-10-26T14:06:32.752Z,97365.38
2023-10-26T14:08:36.219Z,97366.28
2023-10-26T14:10:41.874Z,97368.38
2023-10-26T14:12:44.363Z,97367.66
2023-10-26T14:14:48.879Z,97374.41
2023-10-26T14:16:52.477Z,97378.44
2023-10-26T14:18:55.692Z,97371.78
2023-10-26T14:20:58.639Z,97377.50
2023-10-26T14:23:03.481Z,97374.41
2023-10-26T14:25:08.174Z,97378.88
2023-10-26T14:27:11.311Z,97376.66
2023-10-26T14:29:14.787Z,97383.19
2023-10-26T14:31:19.306Z,97384.50
2023-10-26T14:33:23.028Z,97380.06
2023-10-26T14:35:26.022Z,97382.13
2023-10-26T14:37:28.988Z,97382.25
2023-10-26T14:39:31.995Z,97378.28
2023-10-26T14:41:35.174Z,97381.84
2023-10-26T14:43:38.206Z,97383.88
2023-10-26T14:45:41.238Z,97388.47
2023-10-26T14:47:45.818Z,97374.88
2023-10-26T14:49:48.777Z,97388.69
2023-10-26T14:51:51.763Z,97392.56
2023-10-26T14:53:55.720Z,97395.06
2023-10-26T14:56:01.733Z,97387.69
2023-10-26T14:58:04.596Z,97391.25
2023-10-26T15:00:09.269Z,97394.94
2023-10-26T15:02:12.150Z,97391.22
2023-10-26T15:04:17.087Z,97388.53
2023-10-26T15:06:20.091Z,97394.09
2023-10-26T15:08:23.080Z,97396.69
2023-10-26T15:10:29.763Z,97397.09
2023-10-26T15:12:35.316Z,97409.44
2023-10-26T15:14:38.250Z,97402.31
2023-10-26T15:16:42.183Z,97395.38
2023-10-26T15:18:46.386Z,97391.50
2023-10-26T15:20:50.981Z,97388.13
2023-10-26T15:22:53.850Z,97388.59
2023-10-26T15:24:57.033Z,97403.13
2023-10-26T15:27:00.413Z,97402.44
2023-10-26T15:29:03.450Z,97411.06
2023-10-26T15:31:06.457Z,97406.56
2023-10-26T15:33:09.428Z,97418.00
2023-10-26T15:35:12.545Z,97402.88
2023-10-26T15:37:17.642Z,97408.06
2023-10-26T15:39:20.674Z,97407.59
2023-10-26T15:41:23.696Z,97411.06
2023-10-26T15:43:26.716Z,97418.66
2023-10-26T15:45:29.657Z,97422.03
2023-10-26T15:47:32.663Z,97424.34
2023-10-26T15:49:37.958Z,97426.63
2023-10-26T15:51:40.882Z,97429.47
2023-10-26T15:53:45.891Z,97432.69
2023-10-26T15:55:57.120Z,97428.75
2023-10-26T15:58:00.199Z,97426.63
2023-10-26T16:00:07.808Z,97436.63
2023-10-26T16:02:10.884Z,97436.19
2023-10-26T16:04:13.880Z,97439.56
2023-10-26T16:06:17.510Z,97441.22
2023-10-26T16:08:20.466Z,97436.72
2023-10-26T16:10:24.944Z,97435.25
2023-10-26T16:12:27.842Z,97440.66
2023-10-26T16:14:30.775Z,97444.66
2023-10-26T16:16:33.867Z,97446.63
2023-10-26T16:18:37.016Z,97438.91
2023-10-26T16:20:39.926Z,97436.84
2023-10-26T16:22:42.964Z,97436.63
2023-10-26T16:24:46.164Z,97435.53
2023-10-26T16:26:50.787Z,97436.03
2023-10-26T16:28:53.752Z,97441.53
2023-10-26T16:31:01.245Z,97443.72
2023-10-26T16:33:04.852Z,97435.84
2023-10-26T16:35:11.166Z,97436.41
2023-10-26T16:37:14.085Z,97429.63
2023-10-26T16:39:17.096Z,97425.31
2023-10-26T16:41:20.154Z,97427.53
2023-10-26T16:43:24.991Z,97428.53
2023-10-26T16:45:28.212Z,97432.16
2023-10-26T16:47:35.354Z,97423.75
2023-10-26T16:49:44.148Z,97422.56
2023-10-26T16:51:47.187Z,97415.06
2023-10-26T16:53:50.172Z,97419.66
2023-10-26T16:55:59.888Z,97415.56
2023-10-26T16:58:02.763Z,97419.25
2023-10-26T17:00:11.368Z,97418.38
2023-10-26T17:02:14.423Z,97421.88
2023-10-26T17:04:17.313Z,97420.34
2023-10-26T17:06:20.253Z,97421.94
2023-10-26T17:08:23.217Z,97417.72
2023-10-26T17:10:26.185Z,97419.50
2023-10-26T17:12:29.262Z,97422.03
2023-10-26T17:14:32.071Z,97412.59
2023-10-26T17:16:36.705Z,97405.84
2023-10-26T17:18:39.779Z,97414.00
2023-10-26T17:20:42.664Z,97408.31
2023-10-26T17:22:45.590Z,97403.47
2023-10-26T17:24:49.753Z,97409.25
2023-10-26T17:26:52.618Z,97402.72
2023-10-26T17:28:57.935Z,97400.09
2023-10-26T17:31:07.202Z,97399.28
2023-10-26T17:33:14.437Z,97413.88
2023-10-26T17:35:17.931Z,97411.56
2023-10-26T17:37:21.281Z,97409.25
2023-10-26T17:39:25.732Z,97409.81
2023-10-26T17:41:28.788Z,97410.41
2023-10-26T17:43:31.630Z,97418.38
2023-10-26T17:45:34.861Z,97417.13
2023-10-26T17:47:37.884Z,97411.41
2023-10-26T17:49:42.500Z,97413.50
2023-10-26T17:51:45.550Z,97412.69
2023-10-26T17:53:49.513Z,97415.69
2023-10-26T17:55:58.743Z,97410.28
2023-10-26T17:58:01.735Z,97414.59
2023-10-26T18:00:05.811Z,97408.63
2023-10-26T18:02:14.668Z,97401.66
2023-10-26T18:04:17.610Z,97407.00
2023-10-26T18:06:23.750Z,97403.47
2023-10-26T18:08:26.589Z,97408.78
2023-10-26T18:10:30.438Z,97402.63
2023-10-26T18:12:33.430Z,97412.84
2023-10-26T18:14:36.360Z,97410.38
2023-10-26T18:16:39.487Z,97411.19
2023-10-26T18:18:44.218Z,97411.34
2023-10-26T18:20:55.537Z,97408.09
2023-10-26T18:23:01.730Z,97407.06
2023-10-26T18:25:05.331Z,97403.59
2023-10-26T18:27:08.443Z,97391.38
2023-10-26T18:29:11.307Z,97396.50
2023-10-26T18:31:18.744Z,97402.84
2023-10-26T18:33:21.650Z,97402.25
2023-10-26T18:35:25.677Z,97407.41
2023-10-26T18:37:28.713Z,97402.66
2023-10-26T18:39:33.126Z,97394.13
2023-10-26T18:41:36.047Z,97398.25
2023-10-26T18:43:39.094Z,97397.72
2023-10-26T18:45:42.202Z,97398.28
2023-10-26T18:47:46.641Z,97395.13
2023-10-26T18:49:51.053Z,97391.38
2023-10-26T18:51:54.010Z,97395.94
2023-10-26T18:53:57.175Z,97398.72
2023-10-26T18:56:01.555Z,97389.38
2023-10-26T18:58:04.595Z,97391.06
2023-10-26T19:00:09.523Z,97399.06
2023-10-26T19:02:12.682Z,97389.69
2023-10-26T19:04:17.818Z,97384.56
2023-10-26T19:06:20.782Z,97388.78
2023-10-26T19:08:24.511Z,97386.53
2023-10-26T19:10:27.584Z,97391.97
2023-10-26T19:12:32.083Z,97393.25
2023-10-26T19:14:35.058Z,97383.38
2023-10-26T19:16:38.045Z,97385.47
2023-10-26T19:18:41.107Z,97372.22
2023-10-26T19:20:44.353Z,97383.75
2023-10-26T19:22:49.332Z,97371.59
2023-10-26T19:24:52.276Z,97383.75
2023-10-26T19:26:55.312Z,97389.38
2023-10-26T19:28:59.786Z,97389.66
2023-10-26T19:31:02.756Z,97402.03
2023-10-26T19:33:06.399Z,97409.06
2023-10-26T19:35:09.484Z,97404.03
2023-10-26T19:37:12.462Z,97400.34
2023-10-26T19:39:15.383Z,97401.28
2023-10-26T19:41:18.404Z,97399.19
2023-10-26T19:43:21.384Z,97398.25
2023-10-26T19:45:26.012Z,97402.41
2023-10-26T19:47:29.006Z,97406.13
2023-10-26T19:49:31.979Z,97408.50
2023-10-26T19:51:34.870Z,97405.84
2023-10-26T19:53:37.899Z,97402.31
2023-10-26T19:55:41.135Z,97403.69
2023-10-26T19:57:44.258Z,97393.44
2023-10-26T19:59:47.663Z,97398.53
2023-10-26T20:01:53.236Z,97395.84
2023-10-26T20:03:56.270Z,97399.19
2023-10-26T20:05:59.300Z,97393.28
2023-10-26T20:08:02.187Z,97390.47
2023-10-26T20:10:06.878Z,97404.63
2023-10-26T20:12:10.378Z,97406.72
2023-10-26T20:14:13.461Z,97411.31
2023-10-26T20:16:16.772Z,97416.75
2023-10-26T20:18:21.344Z,97415.69
2023-10-26T20:20:29.787Z,97418.84
2023-10-26T20:22:32.984Z,97421.06
2023-10-26T20:24:36.148Z,97422.41
2023-10-26T20:26:40.485Z,97417.94
2023-10-26T20:28:43.786Z,97429.47
2023-10-26T20:30:46.976Z,97432.63
2023-10-26T20:32:50.418Z,97428.00
2023-10-26T20:34:54.989Z,97426.41
2023-10-26T20:36:58.922Z,97423.94
2023-10-26T20:39:02.101Z,97424.78
2023-10-26T20:41:07.171Z,97429.91
2023-10-26T20:43:10.336Z,97421.84
2023-10-26T20:45:13.442Z,97421.06
2023-10-26T20:47:16.361Z,97416.28
2023-10-26T20:49:19.438Z,97420.56
2023-10-26T20:51:24.083Z,97414.88
2023-10-26T20:53:29.239Z,97421.13
2023-10-26T20:55:32.390Z,97411.44
2023-10-26T20:57:35.360Z,97414.09
2023-10-26T20:59:40.429Z,97419.16
2023-10-26T21:01:45.129Z,97418.59
2023-10-26T21:03:48.249Z,97418.59
2023-10-26T21:05:51.861Z,97425.81
2023-10-26T21:07:57.073Z,97419.06
2023-10-26T21:10:00.144Z,97422.88
2023-10-26T21:12:08.345Z,97418.84
2023-10-26T21:14:13.033Z,97415.16
2023-10-26T21:16:16.223Z,97412.19
2023-10-26T21:18:19.169Z,97410.66
2023-10-26T21:20:24.300Z,97401.06
2023-10-26T21:22:27.256Z,97406.25
2023-10-26T21:24:32.092Z,97404.03
2023-10-26T21:26:34.961Z,97406.16
2023-10-26T21:28:40.199Z,97412.00
2023-10-26T21:30:43.134Z,97411.47
2023-10-26T21:32:46.138Z,97412.28
2023-10-26T21:34:49.122Z,97400.72
2023-10-26T21:36:52.137Z,97397.72
2023-10-26T21:38:55.052Z,97401.75
2023-10-26T21:41:05.398Z,97396.84
2023-10-26T21:43:08.380Z,97405.22
2023-10-26T21:45:11.868Z,97408.22
2023-10-26T21:47:14.895Z,97397.56
2023-10-26T21:49:17.896Z,97400.94
2023-10-26T21:51:20.780Z,97390.88
2023-10-26T21:53:23.760Z,97388.94
2023-10-26T21:55:26.656Z,97392.13
2023-10-26T21:57:31.129Z,97392.59
2023-10-26T21:59:34.199Z,97401.22
2023-10-26T22:01:37.205Z,97401.41
2023-10-26T22:03:40.573Z,97403.56
2023-10-26T22:05:44.681Z,97401.41
2023-10-26T22:07:47.639Z,97397.06
2023-10-26T22:09:55.480Z,97387.19
2023-10-26T22:11:58.758Z,97385.53
2023-10-26T22:14:03.317Z,97393.78
2023-10-26T22:16:06.808Z,97384.97
2023-10-26T22:18:10.175Z,97380.16
2023-10-26T22:20:13.279Z,97380.66
2023-10-26T22:22:16.260Z,97389.22
2023-10-26T22:24:19.321Z,97389.06
2023-10-26T22:26:22.414Z,97391.53
2023-10-26T22:28:25.283Z,97391.81
2023-10-26T22:30:29.842Z,97400.63
2023-10-26T22:32:32.754Z,97393.38
2023-10-26T22:34:36.012Z,97390.13
2023-10-26T22:36:39.390Z,97391.38
2023-10-26T22:38:42.332Z,97385.00
2023-10-26T22:40:45.451Z,97385.47
2023-10-26T22:42:48.662Z,97380.09
2023-10-26T22:44:51.824Z,97368.69
2023-10-26T22:46:56.347Z,97371.69
2023-10-26T22:48:59.540Z,97374.09
2023-10-26T22:51:02.678Z,97370.56
2023-10-26T22:53:05.652Z,97365.31
2023-10-26T22:55:09.712Z,97367.19
2023-10-26T22:57:12.676Z,97362.63
2023-10-26T22:59:15.652Z,97353.03
2023-10-26T23:01:23.299Z,97356.72
2023-10-26T23:03:28.558Z,97364.09
2023-10-26T23:05:31.422Z,97361.16
2023-10-26T23:07:34.472Z,97352.03
2023-10-26T23:09:37.704Z,97366.00
2023-10-26T23:11:40.781Z,97355.78
2023-10-26T23:13:43.735Z,97354.53
2023-10-26T23:15:46.776Z,97350.69
2023-10-26T23:17:49.753Z,97336.34
2023-10-26T23:19:54.480Z,97340.19
2023-10-26T23:21:57.490Z,97341.28
2023-10-26T23:24:02.247Z,97331.44
2023-10-26T23:26:08.168Z,97327.69
2023-10-26T23:28:11.959Z,97319.78
2023-10-26T23:30:15.456Z,97321.09
2023-10-26T23:32:18.358Z,97313.38
2023-10-26T23:34:21.357Z,97313.94
2023-10-26T23:36:25.964Z,97323.06
2023-10-26T23:38:28.780Z,97313.94
2023-10-26T23:40:32.670Z,97314.34
2023-10-26T23:42:35.610Z,97320.28
2023-10-26T23:44:38.660Z,97310.94
2023-10-26T23:46:41.484Z,97312.06
2023-10-26T23:48:44.615Z,97307.81
2023-10-26T23:50:47.515Z,97305.16
2023-10-26T23:52:51.869Z,97309.72
2023-10-26T23:54:54.910Z,97313.81
2023-10-26T23:56:57.955Z,97293.94
2023-10-26T23:59:03.593Z,97298.50
